createdAt,value
2023-05-21T00:03:36.426Z,11.02
2023-05-21T00:07:39.844Z,8.85
2023-05-21T00:11:44.705Z,8.95
2023-05-21T00:15:47.759Z,9.85
2023-05-21T00:19:52.096Z,9.95
2023-05-21T00:23:56.597Z,9.90
2023-05-21T00:28:00.950Z,10.73
2023-05-21T00:32:04.174Z,8.88
2023-05-21T00:36:07.813Z,9.30
2023-05-21T00:40:12.282Z,10.45
2023-05-21T00:44:18.767Z,11.40
2023-05-21T00:48:22.501Z,10.15
2023-05-21T00:52:27.263Z,9.95
2023-05-21T00:56:30.716Z,9.20
2023-05-21T01:00:36.359Z,10.48
2023-05-21T01:04:39.649Z,10.85
2023-05-21T01:08:43.255Z,10.48
2023-05-21T01:12:47.133Z,9.75
2023-05-21T01:16:52.527Z,10.10
2023-05-21T01:20:56.078Z,9.98
2023-05-21T01:25:03.058Z,10.43
2023-05-21T01:29:09.900Z,10.45
2023-05-21T01:33:16.903Z,9.18
2023-05-21T01:37:25.472Z,10.43
2023-05-21T01:41:34.744Z,9.88
2023-05-21T01:45:43.381Z,8.65
2023-05-21T01:49:47.249Z,10.40
2023-05-21T01:53:50.421Z,10.45
2023-05-21T01:57:56.047Z,12.05
2023-05-21T02:01:59.245Z,10.40
2023-05-21T02:06:05.551Z,11.05
2023-05-21T02:10:09.339Z,10.73
2023-05-21T02:14:14.324Z,10.45
2023-05-21T02:18:18.760Z,10.35
2023-05-21T02:22:22.027Z,10.25
2023-05-21T02:26:25.122Z,10.63
2023-05-21T02:30:29.907Z,9.48
2023-05-21T02:34:33.222Z,9.65
2023-05-21T02:38:36.035Z,10.18
2023-05-21T02:42:40.317Z,10.57
2023-05-21T02:46:45.367Z,10.07
2023-05-21T02:50:48.612Z,10.50
2023-05-21T02:54:51.786Z,9.68
2023-05-21T03:02:59.701Z,9.40
2023-05-21T03:07:03.660Z,9.50
2023-05-21T03:11:06.760Z,9.43
2023-05-21T03:19:15.105Z,8.02
2023-05-21T03:23:20.532Z,8.35
2023-05-21T03:27:23.541Z,7.97
2023-05-21T03:31:27.232Z,8.40
2023-05-21T03:35:31.833Z,7.90
2023-05-21T03:39:36.602Z,8.38
2023-05-21T03:43:39.583Z,8.00
2023-05-21T03:47:43.251Z,7.18
2023-05-21T03:51:47.478Z,8.00
2023-05-21T03:55:55.400Z,7.20
2023-05-21T03:59:59.336Z,7.45
2023-05-21T04:04:02.559Z,7.10
2023-05-21T04:08:07.109Z,6.40
2023-05-21T04:12:10.145Z,7.57
2023-05-21T04:16:14.886Z,6.40
2023-05-21T04:20:18.230Z,6.25
2023-05-21T04:24:22.708Z,6.35
2023-05-21T04:28:29.086Z,5.35
2023-05-21T04:32:33.621Z,5.47
2023-05-21T04:36:36.719Z,5.68
2023-05-21T04:40:41.206Z,5.07
2023-05-21T04:44:44.676Z,4.60
2023-05-21T04:48:47.756Z,4.30
2023-05-21T04:52:50.650Z,5.18
2023-05-21T04:56:55.009Z,4.50
2023-05-21T05:00:58.132Z,4.75
2023-05-21T05:05:01.458Z,4.80
2023-05-21T05:09:05.353Z,5.07
2023-05-21T05:13:10.101Z,4.40
2023-05-21T05:17:16.129Z,4.32
2023-05-21T05:21:19.357Z,4.35
2023-05-21T05:25:22.440Z,4.50
2023-05-21T05:29:27.307Z,4.30
2023-05-21T05:33:30.649Z,4.15
2023-05-21T05:37:34.495Z,4.50
2023-05-21T05:41:37.741Z,4.50
2023-05-21T05:45:42.207Z,4.40
2023-05-21T05:49:45.417Z,4.03
2023-05-21T05:53:48.463Z,3.88
2023-05-21T05:57:51.598Z,4.47
2023-05-21T06:01:56.033Z,4.00
2023-05-21T06:05:59.115Z,4.35
2023-05-21T06:10:01.941Z,3.83
2023-05-21T06:14:04.714Z,4.22
2023-05-21T06:18:09.292Z,4.10
2023-05-21T06:22:14.460Z,3.72
2023-05-21T06:26:19.324Z,3.58
2023-05-21T06:30:22.171Z,4.15
2023-05-21T06:34:26.700Z,3.65
2023-05-21T06:38:29.263Z,4.15
2023-05-21T06:42:32.378Z,3.50
2023-05-21T06:46:36.079Z,3.28
2023-05-21T06:50:40.554Z,3.92
2023-05-21T06:54:44.011Z,3.90
2023-05-21T06:58:47.339Z,3.80
2023-05-21T07:02:50.312Z,3.80
2023-05-21T07:06:54.861Z,4.10
2023-05-21T07:10:57.902Z,3.92
2023-05-21T07:15:00.894Z,2.88
2023-05-21T07:19:04.173Z,3.00
2023-05-21T07:23:08.418Z,3.08
2023-05-21T07:27:24.549Z,3.00
2023-05-21T07:31:28.758Z,3.42
2023-05-21T07:35:31.472Z,3.10
2023-05-21T07:39:35.760Z,2.53
2023-05-21T07:43:39.029Z,2.95
2023-05-21T07:47:42.552Z,2.70
2023-05-21T07:51:45.881Z,2.85
2023-05-21T07:55:51.680Z,2.70
2023-05-21T07:59:54.503Z,2.53
2023-05-21T08:03:57.555Z,3.05
2023-05-21T08:08:00.844Z,2.60
2023-05-21T08:12:06.030Z,2.65
2023-05-21T08:16:09.304Z,2.42
2023-05-21T08:20:14.619Z,2.58
2023-05-21T08:24:17.479Z,2.58
2023-05-21T08:28:23.942Z,2.78
2023-05-21T08:32:27.424Z,2.42
2023-05-21T08:36:30.358Z,2.70
2023-05-21T08:40:33.747Z,2.60
2023-05-21T08:44:42.382Z,2.40
2023-05-21T08:48:46.505Z,2.22
2023-05-21T08:52:49.684Z,2.20
2023-05-21T08:56:54.435Z,2.65
2023-05-21T09:01:00.684Z,2.50
2023-05-21T09:05:05.335Z,2.28
2023-05-21T09:09:16.156Z,2.17
2023-05-21T09:13:20.179Z,2.15
2023-05-21T09:17:25.234Z,2.33
2023-05-21T09:21:29.831Z,2.28
2023-05-21T09:25:33.354Z,2.33
2023-05-21T09:29:36.750Z,2.65
2023-05-21T09:33:47.760Z,2.20
2023-05-21T09:37:52.618Z,2.40
2023-05-21T09:41:58.928Z,2.28
2023-05-21T09:46:04.319Z,2.40
2023-05-21T09:50:10.883Z,2.20
2023-05-21T09:54:13.630Z,2.30
2023-05-21T09:58:16.479Z,2.20
2023-05-21T10:02:21.861Z,2.60
2023-05-21T10:06:28.764Z,2.70
2023-05-21T10:10:32.926Z,2.53
2023-05-21T10:14:37.252Z,2.70
2023-05-21T10:18:41.212Z,2.55
2023-05-21T10:22:46.579Z,2.42
2023-05-21T10:26:50.404Z,3.00
2023-05-21T10:30:54.618Z,2.78
2023-05-21T10:35:02.314Z,2.60
2023-05-21T10:43:36.054Z,2.53
2023-05-21T10:48:02.089Z,3.13
2023-05-21T10:52:20.089Z,2.72
2023-05-21T10:56:26.914Z,3.08
2023-05-21T11:00:31.813Z,2.65
2023-05-21T11:04:40.089Z,2.90
2023-05-21T11:08:49.985Z,2.70
2023-05-21T11:13:14.051Z,2.63
2023-05-21T11:17:18.059Z,2.75
2023-05-21T11:21:26.415Z,3.10
2023-05-21T11:25:31.859Z,2.42
2023-05-21T11:29:42.300Z,2.65
2023-05-21T11:33:45.388Z,2.70
2023-05-21T11:37:55.007Z,3.33
2023-05-21T11:42:03.140Z,2.40
2023-05-21T11:46:08.924Z,3.03
2023-05-21T11:50:15.266Z,2.42
2023-05-21T11:54:19.549Z,2.78
2023-05-21T11:58:22.861Z,2.80
2023-05-21T12:02:28.777Z,2.90
2023-05-21T12:06:31.814Z,2.58
2023-05-21T12:10:35.037Z,2.40
2023-05-21T12:14:39.048Z,2.80
2023-05-21T12:18:43.496Z,2.70
2023-05-21T12:22:46.794Z,2.50
2023-05-21T12:26:52.474Z,2.95
2023-05-21T12:30:55.842Z,2.28
2023-05-21T12:35:00.112Z,2.85
2023-05-21T12:39:03.133Z,2.47
2023-05-21T12:43:06.726Z,2.72
2023-05-21T12:47:10.028Z,2.65
2023-05-21T12:51:14.657Z,2.60
2023-05-21T12:55:18.479Z,2.42
2023-05-21T12:59:21.531Z,2.72
2023-05-21T13:03:25.413Z,2.80
2023-05-21T13:07:31.142Z,2.60
2023-05-21T13:11:34.092Z,3.00
2023-05-21T13:15:37.295Z,2.63
2023-05-21T13:19:40.836Z,2.83
2023-05-21T13:23:45.155Z,2.30
2023-05-21T13:27:48.484Z,2.42
2023-05-21T13:31:51.397Z,2.47
2023-05-21T13:35:54.226Z,2.40
2023-05-21T13:39:58.656Z,2.20
2023-05-21T13:44:02.051Z,2.40
2023-05-21T13:48:05.509Z,3.20
2023-05-21T13:52:10.147Z,2.63
2023-05-21T13:56:14.870Z,2.60
2023-05-21T14:00:18.175Z,2.50
2023-05-21T14:04:21.952Z,2.30
2023-05-21T14:08:28.724Z,2.50
2023-05-21T14:12:33.620Z,2.22
2023-05-21T14:16:36.640Z,2.50
2023-05-21T14:20:39.747Z,2.40
2023-05-21T14:24:42.822Z,2.80
2023-05-21T14:28:47.484Z,2.58
2023-05-21T14:32:50.961Z,2.70
2023-05-21T14:36:54.247Z,2.50
2023-05-21T14:40:57.554Z,2.70
2023-05-21T14:45:17.413Z,2.67
2023-05-21T14:49:21.737Z,2.63
2023-05-21T14:53:24.392Z,2.47
2023-05-21T14:57:27.285Z,2.38
2023-05-21T15:01:31.687Z,2.58
2023-05-21T15:05:34.835Z,2.17
2023-05-21T15:09:37.812Z,2.50
2023-05-21T15:13:40.849Z,2.65
2023-05-21T15:17:45.657Z,2.63
2023-05-21T15:21:52.880Z,2.42
2023-05-21T15:25:56.057Z,2.30
2023-05-21T15:30:01.773Z,2.35
2023-05-21T15:34:06.435Z,2.50
2023-05-21T15:38:09.573Z,2.25
2023-05-21T15:42:13.100Z,2.53
2023-05-21T15:46:16.365Z,2.78
2023-05-21T15:50:20.750Z,2.50
2023-05-21T15:54:23.807Z,2.30
2023-05-21T15:58:26.892Z,2.50
2023-05-21T16:02:29.738Z,2.60
2023-05-21T16:06:34.248Z,2.50
2023-05-21T16:10:40.169Z,2.60
2023-05-21T16:14:42.894Z,2.80
2023-05-21T16:18:46.163Z,2.75
2023-05-21T16:22:50.777Z,2.53
2023-05-21T16:26:53.976Z,2.67
2023-05-21T16:30:57.090Z,2.90
2023-05-21T16:35:00.585Z,2.75
2023-05-21T16:39:05.461Z,2.20
2023-05-21T16:43:08.795Z,3.30
2023-05-21T16:47:11.949Z,2.38
2023-05-21T16:51:15.024Z,2.40
2023-05-21T16:55:19.532Z,2.30
2023-05-21T16:59:23.053Z,2.28
2023-05-21T17:03:26.395Z,3.10
2023-05-21T17:07:29.330Z,2.80
2023-05-21T17:11:37.466Z,2.58
2023-05-21T17:15:40.935Z,2.60
2023-05-21T17:19:44.707Z,2.60
2023-05-21T17:23:47.900Z,2.63
2023-05-21T17:27:53.448Z,2.80
2023-05-21T17:31:56.473Z,2.63
2023-05-21T17:35:59.522Z,2.50
2023-05-21T17:40:03.034Z,2.47
2023-05-21T17:44:07.472Z,2.45
2023-05-21T17:48:12.257Z,2.97
2023-05-21T17:52:15.040Z,2.53
2023-05-21T17:56:18.093Z,2.83
2023-05-21T18:00:25.281Z,2.55
2023-05-21T18:04:29.406Z,2.90
2023-05-21T18:08:32.778Z,3.00
2023-05-21T18:12:36.483Z,2.80
2023-05-21T18:16:41.440Z,3.20
2023-05-21T18:20:45.682Z,3.10
2023-05-21T18:24:51.556Z,3.20
2023-05-21T18:28:54.810Z,2.83
2023-05-21T18:33:01.612Z,3.53
2023-05-21T18:37:07.254Z,3.10
2023-05-21T18:41:10.211Z,3.03
2023-05-21T18:45:13.843Z,2.65
2023-05-21T18:49:18.147Z,3.13
2023-05-21T18:53:21.625Z,3.00
2023-05-21T18:57:24.903Z,3.13
2023-05-21T19:01:28.235Z,3.03
2023-05-21T19:05:32.585Z,3.72
2023-05-21T19:09:35.655Z,3.03
2023-05-21T19:13:38.707Z,3.20
2023-05-21T19:17:41.806Z,3.22
2023-05-21T19:21:46.051Z,3.17
2023-05-21T19:25:49.497Z,3.45
2023-05-21T19:29:52.842Z,3.80
2023-05-21T19:33:55.999Z,3.17
2023-05-21T19:38:01.846Z,3.33
2023-05-21T19:42:08.656Z,3.58
2023-05-21T19:46:11.609Z,3.50
2023-05-21T19:50:15.070Z,3.50
2023-05-21T19:54:19.499Z,3.20
2023-05-21T19:58:27.074Z,3.47
2023-05-21T20:02:30.351Z,3.25
2023-05-21T20:06:33.652Z,3.80
2023-05-21T20:10:38.192Z,3.90
2023-05-21T20:14:42.976Z,4.07
2023-05-21T20:18:47.270Z,3.95
2023-05-21T20:22:50.808Z,4.05
2023-05-21T20:26:56.832Z,4.05
2023-05-21T20:31:00.195Z,3.67
2023-05-21T20:35:04.106Z,3.80
2023-05-21T20:39:09.073Z,3.75
2023-05-21T20:43:14.063Z,4.30
2023-05-21T20:47:17.134Z,3.55
2023-05-21T20:51:20.356Z,4.05
2023-05-21T20:55:23.292Z,3.97
2023-05-21T21:03:34.422Z,4.57
2023-05-21T21:07:39.616Z,4.25
2023-05-21T21:11:42.873Z,4.70
2023-05-21T21:15:47.371Z,4.13
2023-05-21T21:19:50.786Z,4.50
2023-05-21T21:23:54.204Z,4.80
2023-05-21T21:27:57.377Z,4.90
2023-05-21T21:32:03.947Z,4.32
2023-05-21T21:36:07.747Z,4.80
2023-05-21T21:40:13.961Z,5.10
2023-05-21T21:44:17.238Z,5.38
2023-05-21T21:48:21.639Z,5.10
2023-05-21T21:52:27.692Z,5.30
2023-05-21T21:56:31.252Z,5.43
2023-05-21T22:00:34.433Z,6.78
2023-05-21T22:04:39.241Z,6.80
2023-05-21T22:08:42.894Z,7.22
2023-05-21T22:12:47.624Z,6.47
2023-05-21T22:16:53.405Z,7.50
2023-05-21T22:20:58.003Z,7.10
2023-05-21T22:25:03.526Z,6.57
2023-05-21T22:29:06.558Z,7.47
2023-05-21T22:33:10.244Z,6.63
2023-05-21T22:37:15.014Z,6.55
2023-05-21T22:41:18.272Z,5.65
2023-05-21T22:45:22.159Z,6.60
2023-05-21T22:49:25.196Z,5.97
2023-05-21T22:57:32.174Z,5.38
2023-05-21T23:01:36.998Z,5.95
2023-05-21T23:05:40.355Z,6.25
2023-05-21T23:09:45.363Z,5.88
2023-05-21T23:13:48.346Z,5.80
2023-05-21T23:17:53.187Z,6.78
2023-05-21T23:21:56.922Z,6.03
2023-05-21T23:26:01.955Z,5.82
2023-05-21T23:30:05.388Z,5.50
2023-05-21T23:34:08.391Z,6.32
2023-05-21T23:42:15.288Z,7.03
2023-05-21T23:46:18.483Z,6.55
2023-05-21T23:50:21.513Z,5.72
2023-05-21T23:54:24.545Z,6.20
